createdAt,value
2018-02-20T00:02:16.081Z,-0.57
2018-02-20T00:04:43.550Z,-0.57
2018-02-20T00:07:11.026Z,-0.57
2018-02-20T00:09:38.507Z,-0.57
2018-02-20T00:12:06.046Z,-0.61
2018-02-20T00:14:33.529Z,-0.65
2018-02-20T00:17:01.013Z,-0.69
2018-02-20T00:19:28.501Z,-0.67
2018-02-20T00:21:56.026Z,-0.68
2018-02-20T00:24:23.615Z,-0.70
2018-02-20T00:26:51.091Z,-0.78
2018-02-20T00:29:18.563Z,-0.83
2018-02-20T00:31:46.112Z,-0.84
2018-02-20T00:34:13.600Z,-0.89
2018-02-20T00:36:41.079Z,-0.96
2018-02-20T00:39:08.629Z,-0.93
2018-02-20T00:41:36.541Z,-0.96
2018-02-20T00:44:04.007Z,-0.96
2018-02-20T00:46:31.546Z,-0.95
2018-02-20T00:48:59.026Z,-0.95
2018-02-20T00:51:26.540Z,-0.96
2018-02-20T00:53:54.014Z,-0.98
2018-02-20T00:56:21.495Z,-1.00
2018-02-20T00:58:49.005Z,-1.01
2018-02-20T01:01:16.482Z,-1.07
2018-02-20T01:03:44.063Z,-1.09
2018-02-20T01:06:12.432Z,-1.10
2018-02-20T01:08:39.923Z,-1.12
2018-02-20T01:11:07.462Z,-1.12
2018-02-20T01:13:34.970Z,-1.14
2018-02-20T01:16:02.449Z,-1.12
2018-02-20T01:18:29.929Z,-1.17
2018-02-20T01:20:57.406Z,-1.19
2018-02-20T01:23:24.940Z,-1.19
2018-02-20T01:25:52.623Z,-1.20
2018-02-20T01:28:20.206Z,-1.21
2018-02-20T01:30:47.763Z,-1.19
2018-02-20T01:33:17.085Z,-1.20
2018-02-20T01:35:44.687Z,-1.15
2018-02-20T01:38:12.175Z,-1.17
2018-02-20T01:40:39.640Z,-1.14
2018-02-20T01:43:07.180Z,-1.14
2018-02-20T01:45:34.783Z,-1.15
2018-02-20T01:48:02.304Z,-1.22
2018-02-20T01:50:29.791Z,-1.29
2018-02-20T01:52:57.306Z,-1.28
2018-02-20T01:55:24.840Z,-1.26
2018-02-20T01:57:52.315Z,-1.24
2018-02-20T02:00:19.857Z,-1.30
2018-02-20T02:02:47.318Z,-1.31
2018-02-20T02:05:14.804Z,-1.33
2018-02-20T02:07:42.373Z,-1.30
2018-02-20T02:10:09.965Z,-1.32
2018-02-20T02:12:37.511Z,-1.38
2018-02-20T02:15:05.035Z,-1.47
2018-02-20T02:17:32.478Z,-1.56
2018-02-20T02:19:59.954Z,-1.63
2018-02-20T02:22:27.465Z,-1.70
2018-02-20T02:24:54.930Z,-1.75
2018-02-20T02:27:22.410Z,-1.75
2018-02-20T02:29:49.886Z,-1.82
2018-02-20T02:32:17.393Z,-1.81
2018-02-20T02:34:44.875Z,-1.84
2018-02-20T02:37:12.421Z,-1.91
2018-02-20T02:39:39.905Z,-1.94
2018-02-20T02:42:07.475Z,-2.01
2018-02-20T02:44:34.946Z,-2.07
2018-02-20T02:47:02.437Z,-2.07
2018-02-20T02:49:29.910Z,-2.14
2018-02-20T02:51:57.378Z,-2.18
2018-02-20T02:54:24.890Z,-2.22
2018-02-20T02:56:52.364Z,-2.26
2018-02-20T02:59:19.865Z,-2.24
2018-02-20T03:01:47.339Z,-2.23
2018-02-20T03:04:14.916Z,-2.18
2018-02-20T03:06:42.489Z,-2.11
2018-02-20T03:09:10.060Z,-2.09
2018-02-20T03:11:37.524Z,-2.10
2018-02-20T03:14:05.045Z,-2.07
2018-02-20T03:16:32.544Z,-2.05
2018-02-20T03:19:00.043Z,-2.06
2018-02-20T03:21:27.624Z,-2.04
2018-02-20T03:23:55.093Z,-2.02
2018-02-20T03:26:22.576Z,-2.00
2018-02-20T03:28:50.039Z,-1.93
2018-02-20T03:31:17.597Z,-1.90
2018-02-20T03:33:45.772Z,-1.88
2018-02-20T03:36:13.245Z,-1.87
2018-02-20T03:38:40.726Z,-1.81
2018-02-20T03:41:08.215Z,-1.80
2018-02-20T03:43:35.689Z,-1.73
2018-02-20T03:46:03.154Z,-1.74
2018-02-20T03:48:30.724Z,-1.69
2018-02-20T03:50:58.461Z,-1.70
2018-02-20T03:53:25.921Z,-1.64
2018-02-20T03:55:53.406Z,-1.58
2018-02-20T03:58:20.872Z,-1.56
2018-02-20T04:00:48.399Z,-1.58
2018-02-20T04:03:15.873Z,-1.62
2018-02-20T04:05:43.346Z,-1.59
2018-02-20T04:08:10.832Z,-1.54
2018-02-20T04:10:38.349Z,-1.46
2018-02-20T04:13:05.908Z,-1.41
2018-02-20T04:15:33.439Z,-1.37
2018-02-20T04:18:01.031Z,-1.44
2018-02-20T04:20:28.553Z,-1.52
2018-02-20T04:22:56.026Z,-1.63
2018-02-20T04:25:23.516Z,-1.67
2018-02-20T04:27:51.022Z,-1.72
2018-02-20T04:30:18.494Z,-1.66
2018-02-20T04:32:45.981Z,-1.65
2018-02-20T04:35:13.452Z,-1.64
2018-02-20T04:37:40.948Z,-1.62
2018-02-20T04:40:08.407Z,-1.67
2018-02-20T04:42:35.953Z,-1.66
2018-02-20T04:45:06.397Z,-1.70
2018-02-20T04:47:33.862Z,-1.74
2018-02-20T04:50:01.382Z,-1.78
2018-02-20T04:52:28.954Z,-1.73
2018-02-20T04:54:56.426Z,-1.76
2018-02-20T04:57:23.898Z,-1.84
2018-02-20T04:59:51.394Z,-1.84
2018-02-20T05:02:18.876Z,-1.74
2018-02-20T05:04:46.364Z,-1.72
2018-02-20T05:07:13.877Z,-1.71
2018-02-20T05:09:41.463Z,-1.81
2018-02-20T05:12:09.029Z,-1.78
2018-02-20T05:14:36.511Z,-1.76
2018-02-20T05:17:03.995Z,-1.77
2018-02-20T05:19:31.474Z,-1.79
2018-02-20T05:21:58.954Z,-1.83
2018-02-20T05:24:26.456Z,-1.85
2018-02-20T05:26:53.925Z,-1.94
2018-02-20T05:29:21.423Z,-1.93
2018-02-20T05:31:48.897Z,-1.97
2018-02-20T05:34:16.412Z,-2.02
2018-02-20T05:36:43.889Z,-2.07
2018-02-20T05:39:11.402Z,-2.05
2018-02-20T05:41:38.890Z,-1.93
2018-02-20T05:44:06.363Z,-1.91
2018-02-20T05:46:33.940Z,-1.96
2018-02-20T05:49:01.400Z,-2.04
2018-02-20T05:51:28.873Z,-2.15
2018-02-20T05:53:56.444Z,-2.20
2018-02-20T05:56:23.944Z,-2.20
2018-02-20T05:58:51.495Z,-2.21
2018-02-20T06:01:18.952Z,-2.28
2018-02-20T06:03:46.525Z,-2.30
2018-02-20T06:06:13.989Z,-2.33
2018-02-20T06:08:41.465Z,-2.30
2018-02-20T06:11:08.994Z,-2.30
2018-02-20T06:13:36.573Z,-2.28
2018-02-20T06:16:04.089Z,-2.26
2018-02-20T06:18:31.650Z,-2.21
2018-02-20T06:20:59.108Z,-2.18
2018-02-20T06:23:26.583Z,-2.17
2018-02-20T06:25:54.121Z,-2.12
2018-02-20T06:28:21.591Z,-2.03
2018-02-20T06:30:49.095Z,-1.94
2018-02-20T06:33:16.579Z,-1.86
2018-02-20T06:35:44.152Z,-1.75
2018-02-20T06:38:12.061Z,-1.70
2018-02-20T06:40:39.532Z,-1.56
2018-02-20T06:43:06.991Z,-1.50
2018-02-20T06:45:34.464Z,-1.43
2018-02-20T06:48:02.068Z,-1.38
2018-02-20T06:50:29.619Z,-1.24
2018-02-20T06:52:57.134Z,-1.00
2018-02-20T06:55:24.601Z,-0.60
2018-02-20T06:57:52.128Z,-0.27
2018-02-20T07:00:19.585Z,-0.10
2018-02-20T07:02:47.086Z,0.10
2018-02-20T07:05:14.611Z,0.25
2018-02-20T07:07:42.083Z,0.35
2018-02-20T07:10:09.558Z,0.40
2018-02-20T07:12:37.122Z,0.62
2018-02-20T07:15:04.588Z,0.58
2018-02-20T07:17:32.081Z,0.95
2018-02-20T07:19:59.648Z,0.86
2018-02-20T07:22:27.213Z,0.91
2018-02-20T07:24:54.702Z,0.97
2018-02-20T07:27:22.160Z,1.14
2018-02-20T07:29:49.632Z,1.23
2018-02-20T07:32:17.131Z,1.44
2018-02-20T07:34:44.609Z,1.47
2018-02-20T07:37:12.153Z,1.45
2018-02-20T07:39:39.710Z,1.71
2018-02-20T07:42:07.295Z,1.69
2018-02-20T07:44:34.792Z,1.63
2018-02-20T07:47:02.325Z,1.95
2018-02-20T07:49:29.801Z,1.90
2018-02-20T07:51:57.384Z,1.91
2018-02-20T07:54:24.945Z,2.02
2018-02-20T07:56:52.407Z,1.88
2018-02-20T07:59:19.928Z,2.05
2018-02-20T08:01:47.392Z,2.20
2018-02-20T08:04:14.877Z,2.05
2018-02-20T08:06:42.351Z,2.71
2018-02-20T08:09:09.838Z,2.90
2018-02-20T08:11:38.518Z,3.10
2018-02-20T08:14:05.997Z,3.27
2018-02-20T08:16:33.508Z,3.63
2018-02-20T08:19:00.971Z,3.77
2018-02-20T08:21:28.446Z,3.92
2018-02-20T08:23:55.941Z,3.80
2018-02-20T08:26:23.418Z,3.90
2018-02-20T08:28:50.985Z,3.96
2018-02-20T08:31:18.533Z,4.13
2018-02-20T08:33:46.019Z,4.22
2018-02-20T08:36:13.589Z,4.20
2018-02-20T08:38:41.093Z,4.08
2018-02-20T08:41:08.581Z,4.04
2018-02-20T08:43:36.046Z,4.11
2018-02-20T08:46:03.532Z,4.44
2018-02-20T08:48:30.992Z,4.17
2018-02-20T08:50:58.518Z,4.95
2018-02-20T08:53:25.979Z,5.13
2018-02-20T08:55:53.484Z,5.89
2018-02-20T08:58:21.482Z,5.81
2018-02-20T09:00:48.956Z,6.21
2018-02-20T09:03:16.437Z,6.69
2018-02-20T09:05:43.917Z,7.00
2018-02-20T09:08:11.415Z,7.37
2018-02-20T09:10:38.871Z,7.39
2018-02-20T09:13:06.349Z,7.56
2018-02-20T09:15:33.830Z,7.41
2018-02-20T09:18:01.309Z,7.69
2018-02-20T09:20:28.776Z,7.65
2018-02-20T09:22:56.346Z,8.06
2018-02-20T09:25:23.814Z,7.69
2018-02-20T09:27:51.289Z,7.09
2018-02-20T09:30:18.852Z,8.51
2018-02-20T09:32:46.336Z,8.75
2018-02-20T09:35:13.798Z,9.48
2018-02-20T09:37:41.286Z,10.04
2018-02-20T09:40:08.816Z,8.69
2018-02-20T09:42:36.328Z,9.65
2018-02-20T09:45:03.894Z,8.18
2018-02-20T09:47:31.368Z,8.44
2018-02-20T09:49:58.909Z,8.10
2018-02-20T09:52:26.398Z,7.36
2018-02-20T09:54:53.894Z,7.79
2018-02-20T09:57:21.362Z,8.00
2018-02-20T09:59:48.910Z,7.00
2018-02-20T10:02:17.725Z,6.33
2018-02-20T10:04:45.211Z,5.88
2018-02-20T10:07:12.692Z,6.24
2018-02-20T10:09:40.226Z,6.68
2018-02-20T10:12:07.811Z,6.09
2018-02-20T10:14:35.384Z,6.15
2018-02-20T10:17:02.946Z,6.19
2018-02-20T10:19:30.397Z,5.70
2018-02-20T10:21:57.886Z,6.21
2018-02-20T10:24:25.350Z,6.91
2018-02-20T10:26:52.822Z,7.41
2018-02-20T10:29:20.303Z,7.58
2018-02-20T10:31:47.953Z,7.95
2018-02-20T10:34:15.410Z,7.44
2018-02-20T10:36:42.927Z,7.37
2018-02-20T10:39:10.382Z,8.35
2018-02-20T10:41:37.957Z,7.69
2018-02-20T10:44:05.567Z,7.38
2018-02-20T10:46:33.029Z,7.48
2018-02-20T10:49:00.581Z,8.05
2018-02-20T10:51:28.138Z,7.99
2018-02-20T10:53:55.606Z,8.33
2018-02-20T10:56:23.197Z,8.94
2018-02-20T10:58:50.783Z,8.49
2018-02-20T11:01:18.254Z,8.00
2018-02-20T11:03:45.733Z,9.10
2018-02-20T11:06:13.204Z,8.83
2018-02-20T11:08:40.757Z,9.11
2018-02-20T11:11:08.221Z,9.29
2018-02-20T11:13:35.691Z,9.48
2018-02-20T11:16:03.166Z,8.84
2018-02-20T11:18:30.635Z,7.79
2018-02-20T11:20:58.208Z,8.47
2018-02-20T11:23:25.821Z,8.51
2018-02-20T11:25:53.341Z,8.61
2018-02-20T11:28:20.823Z,8.43
2018-02-20T11:30:48.337Z,8.49
2018-02-20T11:33:15.804Z,8.14
2018-02-20T11:35:43.269Z,7.90
2018-02-20T11:38:10.809Z,8.55
2018-02-20T11:40:38.274Z,8.80
2018-02-20T11:43:05.770Z,9.11
2018-02-20T11:45:33.231Z,9.02
2018-02-20T11:48:00.724Z,9.46
2018-02-20T11:50:28.178Z,8.82
2018-02-20T11:52:55.647Z,8.54
2018-02-20T11:55:23.213Z,8.97
2018-02-20T11:57:50.779Z,8.85
2018-02-20T12:00:18.250Z,9.14
2018-02-20T12:02:45.768Z,9.21
2018-02-20T12:05:13.240Z,10.49
2018-02-20T12:07:40.793Z,10.16
2018-02-20T12:10:08.337Z,9.35
2018-02-20T12:12:35.810Z,9.48
2018-02-20T12:15:03.285Z,9.41
2018-02-20T12:17:30.745Z,10.31
2018-02-20T12:19:58.521Z,10.59
2018-02-20T12:22:25.997Z,10.20
2018-02-20T12:24:53.615Z,10.33
2018-02-20T12:27:21.299Z,10.89
2018-02-20T12:29:49.324Z,10.63
2018-02-20T12:32:17.103Z,11.22
2018-02-20T12:34:44.771Z,11.50
2018-02-20T12:37:12.236Z,11.02
2018-02-20T12:39:39.705Z,11.11
2018-02-20T12:42:07.185Z,11.37
2018-02-20T12:44:34.810Z,11.14
2018-02-20T12:47:02.279Z,11.61
2018-02-20T12:49:29.800Z,11.18
2018-02-20T12:51:57.382Z,10.85
2018-02-20T12:54:24.850Z,10.33
2018-02-20T12:56:52.366Z,10.34
2018-02-20T12:59:20.040Z,9.61
2018-02-20T13:01:47.530Z,9.88
2018-02-20T13:04:15.009Z,9.52
2018-02-20T13:06:42.517Z,8.62
2018-02-20T13:09:10.002Z,8.37
2018-02-20T13:11:37.462Z,8.63
2018-02-20T13:14:04.937Z,8.56
2018-02-20T13:16:32.493Z,8.35
2018-02-20T13:19:00.043Z,8.23
2018-02-20T13:21:27.533Z,7.95
2018-02-20T13:23:55.119Z,8.26
2018-02-20T13:26:23.005Z,8.26
2018-02-20T13:28:50.482Z,8.35
2018-02-20T13:31:17.954Z,8.61
2018-02-20T13:33:45.409Z,8.42
2018-02-20T13:36:12.880Z,8.69
2018-02-20T13:38:40.353Z,8.63
2018-02-20T13:41:07.833Z,8.48
2018-02-20T13:43:35.396Z,8.30
2018-02-20T13:46:02.970Z,8.24
2018-02-20T13:48:30.545Z,8.30
2018-02-20T13:50:58.302Z,8.32
2018-02-20T13:53:25.800Z,8.50
2018-02-20T13:55:53.378Z,8.53
2018-02-20T13:58:20.936Z,7.84
2018-02-20T14:00:48.407Z,7.84
2018-02-20T14:03:15.916Z,7.42
2018-02-20T14:05:43.394Z,6.89
2018-02-20T14:08:10.925Z,6.74
2018-02-20T14:10:38.500Z,6.63
2018-02-20T14:13:06.048Z,6.57
2018-02-20T14:15:33.541Z,6.49
2018-02-20T14:18:01.211Z,6.26
2018-02-20T14:20:28.701Z,6.07
2018-02-20T14:22:56.201Z,6.02
2018-02-20T14:25:23.724Z,5.99
2018-02-20T14:27:51.193Z,5.94
2018-02-20T14:30:18.784Z,6.10
2018-02-20T14:32:46.383Z,6.18
2018-02-20T14:35:13.895Z,6.12
2018-02-20T14:37:41.381Z,5.82
2018-02-20T14:40:08.850Z,5.60
2018-02-20T14:42:36.328Z,5.62
2018-02-20T14:45:03.797Z,5.65
2018-02-20T14:47:31.270Z,5.60
2018-02-20T14:49:58.738Z,5.58
2018-02-20T14:52:26.230Z,5.59
2018-02-20T14:54:53.690Z,5.37
2018-02-20T14:57:21.169Z,5.33
2018-02-20T14:59:48.662Z,5.31
2018-02-20T15:02:16.138Z,4.97
2018-02-20T15:04:43.605Z,4.73
2018-02-20T15:07:11.107Z,4.58
2018-02-20T15:09:38.607Z,4.69
2018-02-20T15:12:06.073Z,4.62
2018-02-20T15:14:33.581Z,4.70
2018-02-20T15:17:01.111Z,4.65
2018-02-20T15:19:28.583Z,4.63
2018-02-20T15:21:56.219Z,4.56
2018-02-20T15:24:23.711Z,4.49
2018-02-20T15:26:51.183Z,4.42
2018-02-20T15:29:18.677Z,4.34
2018-02-20T15:31:46.141Z,4.29
2018-02-20T15:34:13.776Z,4.27
2018-02-20T15:36:41.304Z,4.28
2018-02-20T15:39:08.774Z,4.22
2018-02-20T15:41:36.706Z,4.20
2018-02-20T15:44:04.224Z,4.15
2018-02-20T15:46:31.764Z,4.05
2018-02-20T15:48:59.192Z,3.99
2018-02-20T15:51:26.672Z,4.00
2018-02-20T15:53:54.188Z,4.00
2018-02-20T15:56:21.779Z,3.90
2018-02-20T15:58:49.382Z,3.83
2018-02-20T16:01:16.978Z,3.76
2018-02-20T16:03:44.504Z,3.71
2018-02-20T16:06:12.006Z,3.58
2018-02-20T16:08:39.474Z,3.56
2018-02-20T16:11:06.936Z,3.46
2018-02-20T16:13:34.491Z,3.32
2018-02-20T16:16:15.849Z,3.28
2018-02-20T16:18:43.337Z,3.21
2018-02-20T16:21:10.913Z,3.10
2018-02-20T16:23:38.370Z,3.10
2018-02-20T16:26:05.857Z,3.02
2018-02-20T16:28:33.337Z,2.94
2018-02-20T16:31:00.808Z,2.81
2018-02-20T16:33:28.414Z,2.78
2018-02-20T16:35:55.944Z,2.69
2018-02-20T16:38:23.471Z,2.63
2018-02-20T16:40:51.015Z,2.58
2018-02-20T16:43:18.583Z,2.51
2018-02-20T16:45:46.137Z,2.45
2018-02-20T16:48:13.616Z,2.35
2018-02-20T16:50:41.337Z,2.23
2018-02-20T16:53:08.839Z,2.19
2018-02-20T16:55:36.290Z,2.12
2018-02-20T16:58:03.766Z,2.11
2018-02-20T17:00:31.280Z,2.00
2018-02-20T17:02:58.748Z,1.91
2018-02-20T17:05:27.501Z,1.87
2018-02-20T17:07:54.992Z,1.83
2018-02-20T17:10:22.483Z,1.77
2018-02-20T17:12:49.967Z,1.80
2018-02-20T17:15:17.439Z,1.76
2018-02-20T17:17:45.002Z,1.76
2018-02-20T17:20:12.601Z,1.78
2018-02-20T17:22:40.109Z,1.81
2018-02-20T17:25:07.666Z,1.78
2018-02-20T17:27:35.155Z,1.80
2018-02-20T17:30:02.632Z,1.86
2018-02-20T17:32:30.099Z,1.90
2018-02-20T17:34:57.690Z,1.99
2018-02-20T17:37:25.218Z,1.98
2018-02-20T17:39:52.709Z,1.96
2018-02-20T17:42:20.246Z,1.95
2018-02-20T17:44:47.849Z,1.95
2018-02-20T17:47:15.354Z,1.94
2018-02-20T17:49:42.822Z,1.99
2018-02-20T17:52:10.317Z,1.92
2018-02-20T17:54:37.782Z,1.87
2018-02-20T17:57:05.277Z,1.86
2018-02-20T17:59:32.740Z,1.85
2018-02-20T18:02:00.215Z,1.78
2018-02-20T18:04:27.691Z,1.76
2018-02-20T18:06:55.238Z,1.68
2018-02-20T18:09:22.872Z,1.61
2018-02-20T18:11:50.500Z,1.55
2018-02-20T18:14:17.990Z,1.48
2018-02-20T18:16:45.545Z,1.42
2018-02-20T18:19:13.020Z,1.36
2018-02-20T18:21:40.600Z,1.37
2018-02-20T18:24:08.133Z,1.31
2018-02-20T18:26:35.631Z,1.22
2018-02-20T18:29:03.116Z,1.18
2018-02-20T18:31:30.581Z,1.17
2018-02-20T18:33:58.121Z,1.13
2018-02-20T18:36:25.593Z,1.15
2018-02-20T18:38:53.602Z,1.10
2018-02-20T18:41:21.102Z,1.10
2018-02-20T18:43:48.587Z,1.02
2018-02-20T18:46:16.138Z,0.97
2018-02-20T18:48:43.612Z,0.96
2018-02-20T18:51:11.158Z,0.87
2018-02-20T18:53:38.642Z,0.84
2018-02-20T18:56:06.117Z,0.81
2018-02-20T18:58:33.591Z,0.80
2018-02-20T19:01:01.390Z,0.78
2018-02-20T19:03:28.928Z,0.73
2018-02-20T19:05:56.541Z,0.68
2018-02-20T19:08:24.025Z,0.63
2018-02-20T19:10:51.510Z,0.65
2018-02-20T19:13:19.929Z,0.63
2018-02-20T19:15:47.446Z,0.61
2018-02-20T19:18:14.923Z,0.63
2018-02-20T19:20:42.407Z,0.59
2018-02-20T19:23:09.925Z,0.53
2018-02-20T19:25:37.409Z,0.47
2018-02-20T19:28:04.891Z,0.42
2018-02-20T19:30:32.380Z,0.38
2018-02-20T19:32:59.853Z,0.33
2018-02-20T19:35:27.319Z,0.27
2018-02-20T19:37:54.881Z,0.17
2018-02-20T19:40:22.490Z,0.13
2018-02-20T19:42:50.067Z,0.08
2018-02-20T19:45:17.557Z,0.00
2018-02-20T19:47:45.033Z,-0.05
2018-02-20T19:50:12.495Z,-0.09
2018-02-20T19:52:40.113Z,-0.14
2018-02-20T19:55:07.653Z,-0.20
2018-02-20T19:57:36.016Z,-0.21
2018-02-20T20:00:03.511Z,-0.20
2018-02-20T20:02:31.051Z,-0.24
2018-02-20T20:04:58.529Z,-0.18
2018-02-20T20:07:26.065Z,-0.26
2018-02-20T20:09:53.632Z,-0.28
2018-02-20T20:12:21.154Z,-0.36
2018-02-20T20:14:48.939Z,-0.44
2018-02-20T20:17:16.397Z,-0.51
2018-02-20T20:19:43.896Z,-0.63
2018-02-20T20:22:11.513Z,-0.70
2018-02-20T20:24:38.986Z,-0.74
2018-02-20T20:27:06.482Z,-0.89
2018-02-20T20:29:33.938Z,-0.92
2018-02-20T20:32:01.547Z,-0.94
2018-02-20T20:34:29.169Z,-1.05
2018-02-20T20:36:56.645Z,-1.04
2018-02-20T20:39:25.475Z,-1.09
2018-02-20T20:41:52.953Z,-1.14
2018-02-20T20:44:20.462Z,-1.16
2018-02-20T20:46:47.955Z,-1.14
2018-02-20T20:49:15.441Z,-1.13
2018-02-20T20:51:42.908Z,-1.10
2018-02-20T20:54:10.409Z,-1.10
2018-02-20T20:56:37.885Z,-1.11
2018-02-20T20:59:05.347Z,-1.08
2018-02-20T21:01:32.834Z,-1.10
2018-02-20T21:04:00.392Z,-1.06
2018-02-20T21:06:27.879Z,-1.07
2018-02-20T21:08:55.356Z,-1.10
2018-02-20T21:11:22.843Z,-1.13
2018-02-20T21:13:50.313Z,-1.13
2018-02-20T21:16:17.852Z,-1.13
2018-02-20T21:18:45.349Z,-1.15
2018-02-20T21:21:13.007Z,-1.10
2018-02-20T21:23:40.486Z,-1.09
2018-02-20T21:26:07.960Z,-1.14
2018-02-20T21:28:35.440Z,-1.18
2018-02-20T21:31:02.985Z,-1.22
2018-02-20T21:33:30.505Z,-1.25
2018-02-20T21:35:58.076Z,-1.31
2018-02-20T21:38:25.570Z,-1.38
2018-02-20T21:40:53.062Z,-1.42
2018-02-20T21:43:20.569Z,-1.48
2018-02-20T21:45:48.107Z,-1.52
2018-02-20T21:48:15.575Z,-1.55
2018-02-20T21:50:43.164Z,-1.60
2018-02-20T21:53:10.641Z,-1.63
2018-02-20T21:55:38.128Z,-1.68
2018-02-20T21:58:05.607Z,-1.65
2018-02-20T22:00:33.099Z,-1.68
2018-02-20T22:03:00.568Z,-1.74
2018-02-20T22:05:28.080Z,-1.79
2018-02-20T22:07:55.561Z,-1.81
2018-02-20T22:10:23.143Z,-1.80
2018-02-20T22:12:50.628Z,-1.77
2018-02-20T22:15:18.101Z,-1.76
2018-02-20T22:17:45.646Z,-1.79
2018-02-20T22:20:13.142Z,-1.80
2018-02-20T22:22:40.649Z,-1.81
2018-02-20T22:25:08.158Z,-1.84
2018-02-20T22:27:35.640Z,-1.88
2018-02-20T22:30:03.209Z,-1.91
2018-02-20T22:32:30.762Z,-1.94
2018-02-20T22:34:58.241Z,-1.98
2018-02-20T22:37:25.735Z,-1.99
2018-02-20T22:39:53.210Z,-1.95
2018-02-20T22:42:21.584Z,-1.98
2018-02-20T22:44:49.137Z,-2.02
2018-02-20T22:47:16.613Z,-2.07
2018-02-20T22:49:44.193Z,-2.13
2018-02-20T22:52:11.754Z,-2.14
2018-02-20T22:54:39.249Z,-2.21
2018-02-20T22:57:06.772Z,-2.14
2018-02-20T22:59:34.422Z,-2.19
2018-02-20T23:02:01.882Z,-2.27
2018-02-20T23:04:29.468Z,-2.35
2018-02-20T23:06:56.990Z,-2.35
2018-02-20T23:09:24.600Z,-2.37
2018-02-20T23:11:52.104Z,-2.36
2018-02-20T23:14:19.578Z,-2.42
2018-02-20T23:16:47.061Z,-2.44
2018-02-20T23:19:14.565Z,-2.47
2018-02-20T23:21:42.049Z,-2.52
2018-02-20T23:24:09.543Z,-2.54
2018-02-20T23:26:37.066Z,-2.52
2018-02-20T23:29:04.641Z,-2.48
2018-02-20T23:31:32.194Z,-2.41
2018-02-20T23:33:59.662Z,-2.40
2018-02-20T23:36:27.152Z,-2.39
2018-02-20T23:38:54.638Z,-2.39
2018-02-20T23:41:22.191Z,-2.40
2018-02-20T23:43:49.666Z,-2.41
2018-02-20T23:46:17.161Z,-2.41
2018-02-20T23:48:45.326Z,-2.43
2018-02-20T23:51:18.474Z,-2.45
2018-02-20T23:53:46.308Z,-2.45
2018-02-20T23:56:13.780Z,-2.48
2018-02-20T23:58:41.259Z,-2.47
